EDT,Max TemperatureF,Mean TemperatureF,Min TemperatureF,Max Dew PointF,MeanDew PointF,Min DewpointF,Max Humidity, Mean Humidity, Min Humidity, Max Sea Level PressureIn, Mean Sea Level PressureIn, Min Sea Level PressureIn, Max VisibilityMiles, Mean VisibilityMiles, Min VisibilityMiles, Max Wind SpeedMPH, Mean Wind SpeedMPH, Max Gust SpeedMPH,PrecipitationIn, CloudCover, Events, WindDirDegrees
2013-7-1,82,76,69,68,67,66,97,80,62,30.00,29.92,29.84,10,10,9,16,8,20,0.01,7,Rain,141
2013-7-2,75,72,69,72,68,66,97,88,79,30.20,30.12,29.97,10,6,0,16,7,20,2.79,8,Fog-Rain,132
2013-7-3,78,74,70,72,70,68,100,94,87,30.28,30.23,30.15,10,8,2,13,4,17,1.69,8,Rain-Thunderstorm,126
2013-7-4,85,78,71,72,70,68,93,77,61,30.31,30.26,30.20,10,8,0,17,4,23,1.66,6,Fog-Rain-Thunderstorm,139
2013-7-5,85,78,71,70,69,68,93,77,61,30.29,30.24,30.18,10,10,5,21,7,25,0.01,5,Rain,149
2013-7-6,86,78,69,70,68,66,97,76,55,30.28,30.21,30.13,10,10,6,18,6,24,0.02,5,Rain,163
2013-7-7,84,77,69,73,69,64,97,81,65,30.19,30.14,30.09,10,10,7,28,5,36,0.26,6,Rain-Thunderstorm,209
2013-7-8,85,76,67,69,66,63,93,72,51,30.19,30.15,30.11,10,10,7,10,4,21,0.00,3,,248
2013-7-9,88,80,71,71,68,62,90,68,45,30.16,30.12,30.06,10,10,10,12,4,15,0.00,2,,186
2013-7-10,90,81,71,72,70,67,93,73,52,30.08,30.02,29.93,10,8,0,18,4,23,3.88,5,Fog-Rain-Thunderstorm,240
2013-7-11,87,78,68,70,69,68,93,76,59,29.99,29.94,29.89,10,9,4,14,4,16,0.14,6,Rain-Thunderstorm,90
2013-7-12,78,73,68,68,64,62,90,75,60,30.09,29.99,29.92,10,10,8,16,8,21,0.00,7,Rain-Thunderstorm,41
2013-7-13,79,74,68,72,67,63,93,80,67,30.25,30.16,30.08,10,9,2,17,5,,0.37,8,Rain,74
2013-7-14,84,78,71,71,69,67,93,74,55,30.38,30.30,30.23,10,10,8,16,9,20,0.01,6,Rain,121
2013-7-15,90,81,71,71,69,65,93,69,44,30.39,30.32,30.27,10,10,9,10,2,,T,3,,155
2013-7-16,94,83,71,71,68,66,93,69,44,30.36,30.29,30.22,10,8,0,43,4,61,1.15,2,Rain-Thunderstorm,15
2013-7-17,92,82,72,74,71,69,93,73,52,30.29,30.23,30.17,10,10,6,15,4,18,0.00,2,,9
2013-7-18,93,83,72,75,71,69,93,71,49,30.20,30.14,30.07,10,10,7,9,3,,0.00,1,,265
2013-7-19,92,83,73,73,70,66,93,69,44,30.09,30.04,29.97,10,9,6,15,5,21,0.00,2,Thunderstorm,265
2013-7-20,91,82,73,72,69,66,87,68,49,30.00,29.96,29.89,10,10,10,13,6,15,0.00,2,,241
2013-7-21,88,80,71,72,69,68,87,71,55,30.02,29.97,29.94,10,10,10,23,5,28,0.00,3,Rain-Thunderstorm,43
2013-7-22,89,81,73,73,70,65,93,70,46,30.01,29.92,29.81,10,10,6,20,4,24,0.16,5,Rain-Thunderstorm,215
2013-7-23,89,81,72,70,66,64,93,70,46,29.82,29.79,29.74,10,10,9,17,7,22,0.01,3,Rain,279
2013-7-24,88,80,71,67,64,59,84,62,39,29.91,29.81,29.75,10,10,10,15,7,18,0.00,3,,299
2013-7-25,83,75,66,63,59,56,81,63,45,30.08,29.98,29.91,10,10,10,13,6,17,0.00,5,,65
2013-7-26,83,73,62,66,62,58,90,72,54,30.16,30.09,30.03,10,10,10,14,6,18,0.00,6,,151
2013-7-27,73,71,68,68,66,64,97,85,73,30.07,30.01,29.96,10,8,3,15,5,18,0.43,7,Rain,125
2013-7-28,85,77,68,68,65,62,93,72,51,30.03,29.96,29.92,10,10,9,10,3,14,T,6,,240
2013-7-29,82,71,59,61,55,51,84,60,36,30.23,30.13,30.05,10,10,10,15,5,20,0.00,1,,325
2013-7-30,84,70,56,63,57,54,87,65,42,30.28,30.22,30.18,10,10,10,12,3,14,0.00,2,,105
2013-7-31,75,71,66,65,63,61,93,77,60,30.18,30.13,30.03,10,9,4,8,2,10,0.14,7,Rain,7